sensor_id;sensor_type;location;lat;lon;timestamp;P1;durP1;ratioP1;P2;durP2;ratioP2
12567;SDS011;6349;50.904;6.136;2023-04-06T00:00:37;7.10;;;6.20;;
12567;SDS011;6349;50.904;6.136;2023-04-06T00:02:38;6.43;;;5.30;;
12567;SDS011;6349;50.904;6.136;2023-04-06T00:04:39;7.13;;;5.70;;
12567;SDS011;6349;50.904;6.136;2023-04-06T00:06:39;6.20;;;5.27;;
12567;SDS011;6349;50.904;6.136;2023-04-06T00:08:40;6.63;;;5.60;;
12567;SDS011;6349;50.904;6.136;2023-04-06T00:10:41;7.80;;;6.43;;
12567;SDS011;6349;50.904;6.136;2023-04-06T00:12:42;8.10;;;5.93;;
12567;SDS011;6349;50.904;6.136;2023-04-06T00:14:43;9.17;;;6.20;;
12567;SDS011;6349;50.904;6.136;2023-04-06T00:16:43;8.20;;;6.27;;
12567;SDS011;6349;50.904;6.136;2023-04-06T00:18:44;6.30;;;5.50;;
12567;SDS011;6349;50.904;6.136;2023-04-06T00:20:45;6.97;;;5.93;;
12567;SDS011;6349;50.904;6.136;2023-04-06T00:22:45;7.17;;;5.73;;
12567;SDS011;6349;50.904;6.136;2023-04-06T00:24:46;8.33;;;6.77;;
12567;SDS011;6349;50.904;6.136;2023-04-06T00:26:47;8.97;;;6.40;;
12567;SDS011;6349;50.904;6.136;2023-04-06T00:28:47;6.73;;;5.90;;
12567;SDS011;6349;50.904;6.136;2023-04-06T00:30:50;7.67;;;6.47;;
12567;SDS011;6349;50.904;6.136;2023-04-06T00:32:52;7.60;;;6.27;;
12567;SDS011;6349;50.904;6.136;2023-04-06T00:34:53;7.40;;;5.77;;
12567;SDS011;6349;50.904;6.136;2023-04-06T00:36:54;7.63;;;5.67;;
12567;SDS011;6349;50.904;6.136;2023-04-06T00:38:54;6.73;;;5.33;;
12567;SDS011;6349;50.904;6.136;2023-04-06T00:40:55;6.63;;;5.73;;
12567;SDS011;6349;50.904;6.136;2023-04-06T00:42:56;7.90;;;6.43;;
12567;SDS011;6349;50.904;6.136;2023-04-06T00:44:59;7.43;;;5.37;;
12567;SDS011;6349;50.904;6.136;2023-04-06T00:47:00;6.10;;;5.50;;
12567;SDS011;6349;50.904;6.136;2023-04-06T00:49:01;7.50;;;5.50;;
12567;SDS011;6349;50.904;6.136;2023-04-06T00:51:02;7.30;;;5.77;;
12567;SDS011;6349;50.904;6.136;2023-04-06T00:53:02;6.93;;;5.40;;
12567;SDS011;6349;50.904;6.136;2023-04-06T00:55:03;6.87;;;5.97;;
12567;SDS011;6349;50.904;6.136;2023-04-06T00:57:07;6.67;;;5.73;;
12567;SDS011;6349;50.904;6.136;2023-04-06T00:59:11;7.03;;;5.60;;
12567;SDS011;6349;50.904;6.136;2023-04-06T01:01:12;7.33;;;5.87;;
12567;SDS011;6349;50.904;6.136;2023-04-06T01:03:12;8.37;;;5.87;;
12567;SDS011;6349;50.904;6.136;2023-04-06T01:05:13;7.33;;;5.97;;
12567;SDS011;6349;50.904;6.136;2023-04-06T01:07:14;7.07;;;5.83;;
12567;SDS011;6349;50.904;6.136;2023-04-06T01:09:15;7.33;;;5.77;;
12567;SDS011;6349;50.904;6.136;2023-04-06T01:11:17;6.50;;;5.63;;
12567;SDS011;6349;50.904;6.136;2023-04-06T01:13:18;6.60;;;5.90;;
12567;SDS011;6349;50.904;6.136;2023-04-06T01:15:19;6.63;;;5.63;;
12567;SDS011;6349;50.904;6.136;2023-04-06T01:17:21;6.67;;;5.67;;
12567;SDS011;6349;50.904;6.136;2023-04-06T01:19:22;7.10;;;5.77;;
12567;SDS011;6349;50.904;6.136;2023-04-06T01:21:23;6.83;;;5.80;;
12567;SDS011;6349;50.904;6.136;2023-04-06T01:23:25;6.20;;;5.43;;
12567;SDS011;6349;50.904;6.136;2023-04-06T01:25:25;7.97;;;6.17;;
12567;SDS011;6349;50.904;6.136;2023-04-06T01:27:26;6.03;;;5.23;;
12567;SDS011;6349;50.904;6.136;2023-04-06T01:29:28;6.93;;;5.63;;
12567;SDS011;6349;50.904;6.136;2023-04-06T01:31:28;6.73;;;6.00;;
12567;SDS011;6349;50.904;6.136;2023-04-06T01:33:29;7.67;;;6.00;;
12567;SDS011;6349;50.904;6.136;2023-04-06T01:35:30;6.40;;;5.70;;
12567;SDS011;6349;50.904;6.136;2023-04-06T01:37:33;8.20;;;6.03;;
12567;SDS011;6349;50.904;6.136;2023-04-06T01:39:34;8.17;;;6.07;;
12567;SDS011;6349;50.904;6.136;2023-04-06T01:41:35;6.40;;;5.60;;
12567;SDS011;6349;50.904;6.136;2023-04-06T01:43:35;6.17;;;5.57;;
12567;SDS011;6349;50.904;6.136;2023-04-06T01:45:36;6.87;;;5.47;;
12567;SDS011;6349;50.904;6.136;2023-04-06T01:47:37;6.80;;;5.67;;
12567;SDS011;6349;50.904;6.136;2023-04-06T01:49:37;6.23;;;5.60;;
12567;SDS011;6349;50.904;6.136;2023-04-06T01:51:38;6.87;;;5.53;;
12567;SDS011;6349;50.904;6.136;2023-04-06T01:53:39;8.60;;;5.90;;
12567;SDS011;6349;50.904;6.136;2023-04-06T01:55:40;6.70;;;5.70;;
12567;SDS011;6349;50.904;6.136;2023-04-06T01:57:41;6.80;;;5.70;;
12567;SDS011;6349;50.904;6.136;2023-04-06T01:59:42;7.67;;;6.03;;
12567;SDS011;6349;50.904;6.136;2023-04-06T02:01:43;8.17;;;6.30;;
12567;SDS011;6349;50.904;6.136;2023-04-06T02:03:43;6.17;;;5.43;;
12567;SDS011;6349;50.904;6.136;2023-04-06T02:05:44;9.77;;;5.57;;
12567;SDS011;6349;50.904;6.136;2023-04-06T02:07:45;7.33;;;5.53;;
12567;SDS011;6349;50.904;6.136;2023-04-06T02:09:46;6.17;;;5.33;;
12567;SDS011;6349;50.904;6.136;2023-04-06T02:11:46;7.00;;;5.90;;
12567;SDS011;6349;50.904;6.136;2023-04-06T02:13:47;6.37;;;5.33;;
12567;SDS011;6349;50.904;6.136;2023-04-06T02:15:48;7.17;;;5.60;;
12567;SDS011;6349;50.904;6.136;2023-04-06T02:17:48;7.97;;;6.53;;
12567;SDS011;6349;50.904;6.136;2023-04-06T02:19:49;10.40;;;7.47;;
12567;SDS011;6349;50.904;6.136;2023-04-06T02:21:50;13.83;;;9.07;;
12567;SDS011;6349;50.904;6.136;2023-04-06T02:23:50;11.43;;;8.20;;
12567;SDS011;6349;50.904;6.136;2023-04-06T02:25:51;11.07;;;7.03;;
12567;SDS011;6349;50.904;6.136;2023-04-06T02:27:52;9.57;;;6.47;;
12567;SDS011;6349;50.904;6.136;2023-04-06T02:29:53;10.37;;;6.30;;
12567;SDS011;6349;50.904;6.136;2023-04-06T02:31:53;7.03;;;6.10;;
12567;SDS011;6349;50.904;6.136;2023-04-06T02:33:54;6.97;;;5.57;;
12567;SDS011;6349;50.904;6.136;2023-04-06T02:35:55;8.03;;;5.93;;
12567;SDS011;6349;50.904;6.136;2023-04-06T02:37:55;7.70;;;6.27;;
12567;SDS011;6349;50.904;6.136;2023-04-06T02:39:56;7.23;;;5.67;;
12567;SDS011;6349;50.904;6.136;2023-04-06T02:41:57;8.13;;;6.23;;
12567;SDS011;6349;50.904;6.136;2023-04-06T02:43:57;6.50;;;5.37;;
12567;SDS011;6349;50.904;6.136;2023-04-06T02:45:58;6.83;;;5.50;;
12567;SDS011;6349;50.904;6.136;2023-04-06T02:47:59;6.60;;;5.80;;
12567;SDS011;6349;50.904;6.136;2023-04-06T02:50:02;6.00;;;5.03;;
12567;SDS011;6349;50.904;6.136;2023-04-06T02:52:06;6.67;;;5.30;;
12567;SDS011;6349;50.904;6.136;2023-04-06T02:54:07;6.27;;;5.17;;
12567;SDS011;6349;50.904;6.136;2023-04-06T02:56:08;5.47;;;4.83;;
12567;SDS011;6349;50.904;6.136;2023-04-06T02:58:08;7.30;;;5.60;;
12567;SDS011;6349;50.904;6.136;2023-04-06T03:00:09;7.13;;;5.57;;
12567;SDS011;6349;50.904;6.136;2023-04-06T03:02:11;6.03;;;5.43;;
12567;SDS011;6349;50.904;6.136;2023-04-06T03:04:11;7.10;;;5.27;;
12567;SDS011;6349;50.904;6.136;2023-04-06T03:06:12;7.43;;;5.57;;
12567;SDS011;6349;50.904;6.136;2023-04-06T03:08:13;6.97;;;5.60;;
12567;SDS011;6349;50.904;6.136;2023-04-06T03:10:13;7.23;;;5.63;;
12567;SDS011;6349;50.904;6.136;2023-04-06T03:12:14;7.67;;;5.83;;
12567;SDS011;6349;50.904;6.136;2023-04-06T03:14:15;9.10;;;6.20;;
12567;SDS011;6349;50.904;6.136;2023-04-06T03:16:17;6.17;;;5.37;;
12567;SDS011;6349;50.904;6.136;2023-04-06T03:18:21;7.10;;;6.07;;
12567;SDS011;6349;50.904;6.136;2023-04-06T03:20:23;8.00;;;6.13;;
12567;SDS011;6349;50.904;6.136;2023-04-06T03:22:23;7.57;;;5.67;;
12567;SDS011;6349;50.904;6.136;2023-04-06T03:24:24;8.50;;;6.27;;
12567;SDS011;6349;50.904;6.136;2023-04-06T03:26:25;7.77;;;5.80;;
12567;SDS011;6349;50.904;6.136;2023-04-06T03:28:26;8.47;;;5.70;;
12567;SDS011;6349;50.904;6.136;2023-04-06T03:30:26;7.03;;;5.83;;
12567;SDS011;6349;50.904;6.136;2023-04-06T03:32:27;8.97;;;5.87;;
12567;SDS011;6349;50.904;6.136;2023-04-06T03:34:27;6.40;;;5.33;;
12567;SDS011;6349;50.904;6.136;2023-04-06T03:36:28;9.73;;;6.27;;
12567;SDS011;6349;50.904;6.136;2023-04-06T03:38:30;6.87;;;5.47;;
12567;SDS011;6349;50.904;6.136;2023-04-06T03:40:31;7.23;;;6.07;;
12567;SDS011;6349;50.904;6.136;2023-04-06T03:42:32;7.37;;;5.47;;
12567;SDS011;6349;50.904;6.136;2023-04-06T03:44:32;7.70;;;6.10;;
12567;SDS011;6349;50.904;6.136;2023-04-06T03:46:33;9.07;;;6.13;;
12567;SDS011;6349;50.904;6.136;2023-04-06T03:48:34;7.60;;;6.00;;
12567;SDS011;6349;50.904;6.136;2023-04-06T03:50:35;8.40;;;5.90;;
12567;SDS011;6349;50.904;6.136;2023-04-06T03:52:35;7.47;;;5.70;;
12567;SDS011;6349;50.904;6.136;2023-04-06T03:54:36;8.07;;;5.87;;
12567;SDS011;6349;50.904;6.136;2023-04-06T03:56:37;8.10;;;5.57;;
12567;SDS011;6349;50.904;6.136;2023-04-06T03:58:38;7.70;;;5.63;;
12567;SDS011;6349;50.904;6.136;2023-04-06T04:00:38;7.27;;;5.30;;
12567;SDS011;6349;50.904;6.136;2023-04-06T04:02:39;6.93;;;5.50;;
12567;SDS011;6349;50.904;6.136;2023-04-06T04:04:40;7.60;;;5.87;;
12567;SDS011;6349;50.904;6.136;2023-04-06T04:06:43;6.97;;;5.50;;
12567;SDS011;6349;50.904;6.136;2023-04-06T04:08:44;7.97;;;6.23;;
12567;SDS011;6349;50.904;6.136;2023-04-06T04:10:44;6.80;;;5.73;;
12567;SDS011;6349;50.904;6.136;2023-04-06T04:12:45;6.77;;;5.50;;
12567;SDS011;6349;50.904;6.136;2023-04-06T04:14:46;7.20;;;5.43;;
12567;SDS011;6349;50.904;6.136;2023-04-06T04:16:46;6.23;;;5.20;;
12567;SDS011;6349;50.904;6.136;2023-04-06T04:18:47;6.90;;;5.67;;
12567;SDS011;6349;50.904;6.136;2023-04-06T04:20:48;6.43;;;5.73;;
12567;SDS011;6349;50.904;6.136;2023-04-06T04:22:49;6.87;;;5.30;;
12567;SDS011;6349;50.904;6.136;2023-04-06T04:24:50;7.50;;;5.70;;
12567;SDS011;6349;50.904;6.136;2023-04-06T04:26:50;7.03;;;5.57;;
12567;SDS011;6349;50.904;6.136;2023-04-06T04:28:51;8.20;;;5.57;;
12567;SDS011;6349;50.904;6.136;2023-04-06T04:30:52;7.67;;;5.33;;
12567;SDS011;6349;50.904;6.136;2023-04-06T04:32:52;7.77;;;5.70;;
12567;SDS011;6349;50.904;6.136;2023-04-06T04:34:54;7.50;;;5.67;;
12567;SDS011;6349;50.904;6.136;2023-04-06T04:36:54;7.20;;;6.00;;
12567;SDS011;6349;50.904;6.136;2023-04-06T04:38:55;7.17;;;5.80;;
12567;SDS011;6349;50.904;6.136;2023-04-06T04:40:56;6.23;;;5.30;;
12567;SDS011;6349;50.904;6.136;2023-04-06T04:42:56;8.17;;;5.40;;
12567;SDS011;6349;50.904;6.136;2023-04-06T04:44:57;7.07;;;5.27;;
12567;SDS011;6349;50.904;6.136;2023-04-06T04:46:58;6.40;;;5.17;;
12567;SDS011;6349;50.904;6.136;2023-04-06T04:48:59;6.93;;;5.40;;
12567;SDS011;6349;50.904;6.136;2023-04-06T04:50:59;7.17;;;5.40;;
12567;SDS011;6349;50.904;6.136;2023-04-06T04:53:00;7.40;;;5.30;;
12567;SDS011;6349;50.904;6.136;2023-04-06T04:55:01;6.20;;;5.10;;
12567;SDS011;6349;50.904;6.136;2023-04-06T04:57:02;8.93;;;5.67;;
12567;SDS011;6349;50.904;6.136;2023-04-06T04:59:02;8.40;;;5.70;;
12567;SDS011;6349;50.904;6.136;2023-04-06T05:01:03;6.27;;;4.83;;
12567;SDS011;6349;50.904;6.136;2023-04-06T05:03:04;7.47;;;6.07;;
12567;SDS011;6349;50.904;6.136;2023-04-06T05:05:06;7.27;;;5.60;;
12567;SDS011;6349;50.904;6.136;2023-04-06T05:07:07;10.33;;;5.60;;
12567;SDS011;6349;50.904;6.136;2023-04-06T05:09:09;7.53;;;5.70;;
12567;SDS011;6349;50.904;6.136;2023-04-06T05:11:10;7.50;;;5.80;;
12567;SDS011;6349;50.904;6.136;2023-04-06T05:13:10;6.20;;;5.60;;
12567;SDS011;6349;50.904;6.136;2023-04-06T05:15:11;7.60;;;5.53;;
12567;SDS011;6349;50.904;6.136;2023-04-06T05:17:12;6.77;;;5.23;;
12567;SDS011;6349;50.904;6.136;2023-04-06T05:19:13;6.10;;;5.50;;
12567;SDS011;6349;50.904;6.136;2023-04-06T05:21:14;8.10;;;5.73;;
12567;SDS011;6349;50.904;6.136;2023-04-06T05:23:14;7.43;;;6.03;;
12567;SDS011;6349;50.904;6.136;2023-04-06T05:25:15;7.73;;;6.00;;
12567;SDS011;6349;50.904;6.136;2023-04-06T05:27:16;7.07;;;5.53;;
12567;SDS011;6349;50.904;6.136;2023-04-06T05:29:16;6.67;;;5.57;;
12567;SDS011;6349;50.904;6.136;2023-04-06T05:31:18;8.70;;;5.77;;
12567;SDS011;6349;50.904;6.136;2023-04-06T05:33:19;7.57;;;5.83;;
12567;SDS011;6349;50.904;6.136;2023-04-06T05:35:20;8.13;;;5.70;;
12567;SDS011;6349;50.904;6.136;2023-04-06T05:37:20;7.63;;;6.13;;
12567;SDS011;6349;50.904;6.136;2023-04-06T05:39:21;7.20;;;6.03;;
12567;SDS011;6349;50.904;6.136;2023-04-06T05:41:22;11.73;;;5.90;;
12567;SDS011;6349;50.904;6.136;2023-04-06T05:43:23;8.67;;;5.20;;
12567;SDS011;6349;50.904;6.136;2023-04-06T05:45:24;9.03;;;5.80;;
12567;SDS011;6349;50.904;6.136;2023-04-06T05:47:25;8.53;;;6.07;;
12567;SDS011;6349;50.904;6.136;2023-04-06T05:49:25;7.20;;;5.77;;
12567;SDS011;6349;50.904;6.136;2023-04-06T05:51:26;11.27;;;6.50;;
12567;SDS011;6349;50.904;6.136;2023-04-06T05:53:27;8.60;;;6.53;;
12567;SDS011;6349;50.904;6.136;2023-04-06T05:55:29;7.77;;;5.83;;
12567;SDS011;6349;50.904;6.136;2023-04-06T05:57:29;7.43;;;6.13;;
12567;SDS011;6349;50.904;6.136;2023-04-06T05:59:30;9.43;;;5.70;;
12567;SDS011;6349;50.904;6.136;2023-04-06T06:01:32;8.10;;;6.07;;
12567;SDS011;6349;50.904;6.136;2023-04-06T06:03:34;7.20;;;6.30;;
12567;SDS011;6349;50.904;6.136;2023-04-06T06:05:34;8.87;;;6.47;;
12567;SDS011;6349;50.904;6.136;2023-04-06T06:07:35;9.60;;;6.27;;
12567;SDS011;6349;50.904;6.136;2023-04-06T06:09:35;8.03;;;5.90;;
12567;SDS011;6349;50.904;6.136;2023-04-06T06:11:36;8.63;;;6.33;;
12567;SDS011;6349;50.904;6.136;2023-04-06T06:13:37;8.70;;;6.20;;
12567;SDS011;6349;50.904;6.136;2023-04-06T06:15:40;7.27;;;6.13;;
12567;SDS011;6349;50.904;6.136;2023-04-06T06:17:41;8.47;;;6.07;;
12567;SDS011;6349;50.904;6.136;2023-04-06T06:19:41;8.10;;;6.23;;
12567;SDS011;6349;50.904;6.136;2023-04-06T06:21:42;11.27;;;6.67;;
12567;SDS011;6349;50.904;6.136;2023-04-06T06:23:43;9.23;;;6.47;;
12567;SDS011;6349;50.904;6.136;2023-04-06T06:25:43;8.83;;;6.80;;
12567;SDS011;6349;50.904;6.136;2023-04-06T06:27:44;8.30;;;6.70;;
12567;SDS011;6349;50.904;6.136;2023-04-06T06:29:44;10.13;;;6.63;;
12567;SDS011;6349;50.904;6.136;2023-04-06T06:31:45;7.87;;;6.30;;
12567;SDS011;6349;50.904;6.136;2023-04-06T06:33:46;8.33;;;6.83;;
12567;SDS011;6349;50.904;6.136;2023-04-06T06:35:50;7.70;;;6.50;;
12567;SDS011;6349;50.904;6.136;2023-04-06T06:37:52;8.30;;;6.20;;
12567;SDS011;6349;50.904;6.136;2023-04-06T06:39:53;10.33;;;6.33;;
12567;SDS011;6349;50.904;6.136;2023-04-06T06:41:53;9.13;;;6.20;;
12567;SDS011;6349;50.904;6.136;2023-04-06T06:43:55;7.43;;;5.67;;
12567;SDS011;6349;50.904;6.136;2023-04-06T06:45:55;7.50;;;5.73;;
12567;SDS011;6349;50.904;6.136;2023-04-06T06:47:56;7.87;;;5.80;;
12567;SDS011;6349;50.904;6.136;2023-04-06T06:49:57;8.20;;;6.40;;
12567;SDS011;6349;50.904;6.136;2023-04-06T06:51:57;7.43;;;6.50;;
12567;SDS011;6349;50.904;6.136;2023-04-06T06:53:58;8.47;;;6.13;;
12567;SDS011;6349;50.904;6.136;2023-04-06T06:55:59;7.43;;;6.10;;
12567;SDS011;6349;50.904;6.136;2023-04-06T06:57:59;8.23;;;6.20;;
12567;SDS011;6349;50.904;6.136;2023-04-06T07:00:00;7.23;;;5.97;;
12567;SDS011;6349;50.904;6.136;2023-04-06T07:02:01;9.23;;;6.50;;
12567;SDS011;6349;50.904;6.136;2023-04-06T07:04:01;7.77;;;6.23;;
12567;SDS011;6349;50.904;6.136;2023-04-06T07:06:02;7.43;;;5.97;;
12567;SDS011;6349;50.904;6.136;2023-04-06T07:08:03;10.43;;;6.87;;
12567;SDS011;6349;50.904;6.136;2023-04-06T07:10:04;9.03;;;6.70;;
12567;SDS011;6349;50.904;6.136;2023-04-06T07:12:05;6.73;;;5.80;;
12567;SDS011;6349;50.904;6.136;2023-04-06T07:14:06;8.27;;;6.57;;
12567;SDS011;6349;50.904;6.136;2023-04-06T07:16:07;7.63;;;6.00;;
12567;SDS011;6349;50.904;6.136;2023-04-06T07:18:07;9.00;;;6.60;;
12567;SDS011;6349;50.904;6.136;2023-04-06T07:20:08;7.90;;;6.70;;
12567;SDS011;6349;50.904;6.136;2023-04-06T07:22:09;7.87;;;6.50;;
12567;SDS011;6349;50.904;6.136;2023-04-06T07:24:10;10.87;;;6.77;;
12567;SDS011;6349;50.904;6.136;2023-04-06T07:26:10;8.50;;;6.30;;
12567;SDS011;6349;50.904;6.136;2023-04-06T07:28:11;9.73;;;7.13;;
12567;SDS011;6349;50.904;6.136;2023-04-06T07:30:12;9.03;;;6.73;;
12567;SDS011;6349;50.904;6.136;2023-04-06T07:32:12;8.77;;;6.77;;
12567;SDS011;6349;50.904;6.136;2023-04-06T07:34:13;9.20;;;6.80;;
12567;SDS011;6349;50.904;6.136;2023-04-06T07:36:14;9.17;;;7.00;;
12567;SDS011;6349;50.904;6.136;2023-04-06T07:38:14;8.03;;;6.30;;
12567;SDS011;6349;50.904;6.136;2023-04-06T07:40:15;8.53;;;6.53;;
12567;SDS011;6349;50.904;6.136;2023-04-06T07:42:15;8.33;;;6.53;;
12567;SDS011;6349;50.904;6.136;2023-04-06T07:44:16;11.80;;;7.30;;
12567;SDS011;6349;50.904;6.136;2023-04-06T07:46:17;9.60;;;6.67;;
12567;SDS011;6349;50.904;6.136;2023-04-06T07:48:17;8.13;;;6.53;;
12567;SDS011;6349;50.904;6.136;2023-04-06T07:50:18;9.53;;;6.67;;
12567;SDS011;6349;50.904;6.136;2023-04-06T07:52:19;10.17;;;6.93;;
12567;SDS011;6349;50.904;6.136;2023-04-06T07:54:19;11.87;;;6.80;;
12567;SDS011;6349;50.904;6.136;2023-04-06T07:56:20;9.10;;;6.97;;
12567;SDS011;6349;50.904;6.136;2023-04-06T07:58:21;9.03;;;6.67;;
12567;SDS011;6349;50.904;6.136;2023-04-06T08:00:23;11.07;;;6.83;;
12567;SDS011;6349;50.904;6.136;2023-04-06T08:02:25;9.17;;;6.93;;
12567;SDS011;6349;50.904;6.136;2023-04-06T08:04:27;8.70;;;6.10;;
12567;SDS011;6349;50.904;6.136;2023-04-06T08:06:29;9.87;;;7.00;;
12567;SDS011;6349;50.904;6.136;2023-04-06T08:08:31;10.37;;;6.73;;
12567;SDS011;6349;50.904;6.136;2023-04-06T08:10:33;11.07;;;7.13;;
12567;SDS011;6349;50.904;6.136;2023-04-06T08:12:36;9.60;;;6.60;;
12567;SDS011;6349;50.904;6.136;2023-04-06T08:14:38;9.60;;;6.70;;
12567;SDS011;6349;50.904;6.136;2023-04-06T08:16:39;9.63;;;7.23;;
12567;SDS011;6349;50.904;6.136;2023-04-06T08:18:41;9.73;;;6.97;;
12567;SDS011;6349;50.904;6.136;2023-04-06T08:20:43;8.73;;;6.90;;
12567;SDS011;6349;50.904;6.136;2023-04-06T08:22:45;10.77;;;7.60;;
12567;SDS011;6349;50.904;6.136;2023-04-06T08:24:47;11.53;;;7.10;;
12567;SDS011;6349;50.904;6.136;2023-04-06T08:26:49;8.97;;;6.73;;
12567;SDS011;6349;50.904;6.136;2023-04-06T08:28:52;9.33;;;6.47;;
12567;SDS011;6349;50.904;6.136;2023-04-06T08:30:54;9.47;;;6.93;;
12567;SDS011;6349;50.904;6.136;2023-04-06T08:32:56;9.80;;;6.50;;
12567;SDS011;6349;50.904;6.136;2023-04-06T08:34:58;9.33;;;6.80;;
12567;SDS011;6349;50.904;6.136;2023-04-06T08:36:58;9.40;;;6.70;;
12567;SDS011;6349;50.904;6.136;2023-04-06T08:39:01;8.43;;;6.87;;
12567;SDS011;6349;50.904;6.136;2023-04-06T08:41:08;7.77;;;6.00;;
12567;SDS011;6349;50.904;6.136;2023-04-06T08:43:16;9.00;;;6.50;;
12567;SDS011;6349;50.904;6.136;2023-04-06T08:45:20;9.57;;;6.77;;
12567;SDS011;6349;50.904;6.136;2023-04-06T08:47:23;9.10;;;6.13;;
12567;SDS011;6349;50.904;6.136;2023-04-06T08:49:28;10.10;;;6.57;;
12567;SDS011;6349;50.904;6.136;2023-04-06T08:51:30;8.77;;;6.37;;
12567;SDS011;6349;50.904;6.136;2023-04-06T08:53:33;9.87;;;7.00;;
12567;SDS011;6349;50.904;6.136;2023-04-06T08:55:36;8.90;;;6.63;;
12567;SDS011;6349;50.904;6.136;2023-04-06T08:57:37;10.77;;;6.83;;
12567;SDS011;6349;50.904;6.136;2023-04-06T08:59:41;11.27;;;6.63;;
12567;SDS011;6349;50.904;6.136;2023-04-06T09:01:44;9.57;;;6.90;;
12567;SDS011;6349;50.904;6.136;2023-04-06T09:03:48;8.50;;;6.60;;
12567;SDS011;6349;50.904;6.136;2023-04-06T09:05:52;9.67;;;7.20;;
12567;SDS011;6349;50.904;6.136;2023-04-06T09:07:53;9.77;;;7.07;;
12567;SDS011;6349;50.904;6.136;2023-04-06T09:09:55;10.50;;;6.70;;
12567;SDS011;6349;50.904;6.136;2023-04-06T09:11:57;8.80;;;6.53;;
12567;SDS011;6349;50.904;6.136;2023-04-06T09:14:03;8.63;;;6.80;;
12567;SDS011;6349;50.904;6.136;2023-04-06T09:16:05;9.80;;;6.33;;
12567;SDS011;6349;50.904;6.136;2023-04-06T09:18:08;8.33;;;6.80;;
12567;SDS011;6349;50.904;6.136;2023-04-06T09:20:11;11.13;;;6.60;;
12567;SDS011;6349;50.904;6.136;2023-04-06T09:22:13;7.73;;;6.47;;
12567;SDS011;6349;50.904;6.136;2023-04-06T09:24:17;8.00;;;6.20;;
12567;SDS011;6349;50.904;6.136;2023-04-06T09:26:26;9.30;;;6.70;;
12567;SDS011;6349;50.904;6.136;2023-04-06T09:28:28;9.23;;;6.30;;
12567;SDS011;6349;50.904;6.136;2023-04-06T09:30:50;10.87;;;6.73;;
12567;SDS011;6349;50.904;6.136;2023-04-06T09:32:53;8.97;;;7.10;;
12567;SDS011;6349;50.904;6.136;2023-04-06T09:35:05;9.40;;;6.67;;
12567;SDS011;6349;50.904;6.136;2023-04-06T09:37:17;9.33;;;6.23;;
12567;SDS011;6349;50.904;6.136;2023-04-06T09:39:21;9.20;;;6.57;;
12567;SDS011;6349;50.904;6.136;2023-04-06T09:41:30;9.03;;;6.90;;
12567;SDS011;6349;50.904;6.136;2023-04-06T09:43:33;9.33;;;6.57;;
12567;SDS011;6349;50.904;6.136;2023-04-06T09:45:35;11.60;;;7.53;;
12567;SDS011;6349;50.904;6.136;2023-04-06T09:47:37;8.87;;;6.73;;
12567;SDS011;6349;50.904;6.136;2023-04-06T09:49:45;9.30;;;6.77;;
12567;SDS011;6349;50.904;6.136;2023-04-06T09:51:53;10.50;;;7.00;;
12567;SDS011;6349;50.904;6.136;2023-04-06T09:53:57;9.50;;;7.20;;
12567;SDS011;6349;50.904;6.136;2023-04-06T09:56:03;10.80;;;7.13;;
12567;SDS011;6349;50.904;6.136;2023-04-06T09:58:09;9.73;;;7.13;;
12567;SDS011;6349;50.904;6.136;2023-04-06T10:00:14;10.77;;;6.90;;
12567;SDS011;6349;50.904;6.136;2023-04-06T10:05:22;10.07;;;7.90;;
12567;SDS011;6349;50.904;6.136;2023-04-06T10:07:30;8.47;;;6.90;;
12567;SDS011;6349;50.904;6.136;2023-04-06T10:09:31;8.87;;;7.27;;
12567;SDS011;6349;50.904;6.136;2023-04-06T10:11:36;10.37;;;7.73;;
12567;SDS011;6349;50.904;6.136;2023-04-06T10:13:37;10.37;;;7.67;;
12567;SDS011;6349;50.904;6.136;2023-04-06T10:15:38;11.60;;;7.57;;
12567;SDS011;6349;50.904;6.136;2023-04-06T10:17:40;10.27;;;7.47;;
12567;SDS011;6349;50.904;6.136;2023-04-06T10:19:49;9.83;;;7.37;;
12567;SDS011;6349;50.904;6.136;2023-04-06T10:22:04;8.70;;;6.70;;
12567;SDS011;6349;50.904;6.136;2023-04-06T10:24:08;7.97;;;6.30;;
12567;SDS011;6349;50.904;6.136;2023-04-06T10:26:17;9.77;;;6.53;;
12567;SDS011;6349;50.904;6.136;2023-04-06T10:28:20;8.70;;;6.70;;
12567;SDS011;6349;50.904;6.136;2023-04-06T10:30:21;7.83;;;6.30;;
12567;SDS011;6349;50.904;6.136;2023-04-06T10:32:31;7.07;;;5.87;;
12567;SDS011;6349;50.904;6.136;2023-04-06T10:34:36;7.17;;;5.60;;
12567;SDS011;6349;50.904;6.136;2023-04-06T10:36:36;6.53;;;5.57;;
12567;SDS011;6349;50.904;6.136;2023-04-06T10:38:39;8.00;;;6.03;;
12567;SDS011;6349;50.904;6.136;2023-04-06T10:40:41;6.73;;;5.27;;
12567;SDS011;6349;50.904;6.136;2023-04-06T10:42:47;7.47;;;5.50;;
12567;SDS011;6349;50.904;6.136;2023-04-06T10:44:49;9.33;;;5.67;;
12567;SDS011;6349;50.904;6.136;2023-04-06T10:46:56;6.97;;;5.87;;
12567;SDS011;6349;50.904;6.136;2023-04-06T10:48:57;8.00;;;6.00;;
12567;SDS011;6349;50.904;6.136;2023-04-06T10:50:58;7.03;;;5.77;;
12567;SDS011;6349;50.904;6.136;2023-04-06T10:52:59;7.30;;;5.93;;
12567;SDS011;6349;50.904;6.136;2023-04-06T10:55:01;7.37;;;5.50;;
12567;SDS011;6349;50.904;6.136;2023-04-06T10:57:02;6.07;;;4.83;;
12567;SDS011;6349;50.904;6.136;2023-04-06T10:59:02;5.93;;;4.40;;
12567;SDS011;6349;50.904;6.136;2023-04-06T11:01:03;5.33;;;4.23;;
12567;SDS011;6349;50.904;6.136;2023-04-06T11:03:04;6.47;;;5.00;;
12567;SDS011;6349;50.904;6.136;2023-04-06T11:05:04;5.30;;;4.10;;
12567;SDS011;6349;50.904;6.136;2023-04-06T11:07:05;5.30;;;4.53;;
12567;SDS011;6349;50.904;6.136;2023-04-06T11:09:09;5.10;;;4.57;;
12567;SDS011;6349;50.904;6.136;2023-04-06T11:11:11;5.77;;;5.17;;
12567;SDS011;6349;50.904;6.136;2023-04-06T11:13:16;6.83;;;5.20;;
12567;SDS011;6349;50.904;6.136;2023-04-06T11:15:17;6.43;;;5.23;;
12567;SDS011;6349;50.904;6.136;2023-04-06T11:17:17;6.93;;;5.50;;
12567;SDS011;6349;50.904;6.136;2023-04-06T11:19:26;8.03;;;5.60;;
12567;SDS011;6349;50.904;6.136;2023-04-06T11:21:35;6.23;;;5.50;;
12567;SDS011;6349;50.904;6.136;2023-04-06T11:23:39;6.73;;;5.17;;
12567;SDS011;6349;50.904;6.136;2023-04-06T11:25:49;7.00;;;5.53;;
12567;SDS011;6349;50.904;6.136;2023-04-06T11:27:50;6.13;;;5.20;;
12567;SDS011;6349;50.904;6.136;2023-04-06T11:29:51;7.20;;;5.30;;
12567;SDS011;6349;50.904;6.136;2023-04-06T11:31:53;7.17;;;5.60;;
12567;SDS011;6349;50.904;6.136;2023-04-06T11:33:58;7.77;;;5.13;;
12567;SDS011;6349;50.904;6.136;2023-04-06T11:35:58;6.40;;;5.33;;
12567;SDS011;6349;50.904;6.136;2023-04-06T11:38:02;5.97;;;5.30;;
12567;SDS011;6349;50.904;6.136;2023-04-06T11:40:03;6.40;;;5.77;;
12567;SDS011;6349;50.904;6.136;2023-04-06T11:42:07;6.70;;;5.10;;
12567;SDS011;6349;50.904;6.136;2023-04-06T11:44:09;6.97;;;5.13;;
12567;SDS011;6349;50.904;6.136;2023-04-06T11:46:16;8.30;;;5.50;;
12567;SDS011;6349;50.904;6.136;2023-04-06T11:48:18;6.90;;;5.23;;
12567;SDS011;6349;50.904;6.136;2023-04-06T11:50:19;6.67;;;5.40;;
12567;SDS011;6349;50.904;6.136;2023-04-06T11:52:21;6.30;;;5.43;;
12567;SDS011;6349;50.904;6.136;2023-04-06T11:54:30;8.43;;;6.33;;
12567;SDS011;6349;50.904;6.136;2023-04-06T11:56:31;10.40;;;6.10;;
12567;SDS011;6349;50.904;6.136;2023-04-06T11:58:31;6.03;;;5.43;;
12567;SDS011;6349;50.904;6.136;2023-04-06T12:00:32;7.20;;;5.50;;
12567;SDS011;6349;50.904;6.136;2023-04-06T12:02:35;6.30;;;5.17;;
12567;SDS011;6349;50.904;6.136;2023-04-06T12:04:36;6.13;;;5.53;;
12567;SDS011;6349;50.904;6.136;2023-04-06T12:06:38;7.17;;;6.23;;
12567;SDS011;6349;50.904;6.136;2023-04-06T12:08:38;6.57;;;5.87;;
12567;SDS011;6349;50.904;6.136;2023-04-06T12:10:39;6.73;;;5.50;;
12567;SDS011;6349;50.904;6.136;2023-04-06T12:12:40;6.60;;;5.77;;
12567;SDS011;6349;50.904;6.136;2023-04-06T12:14:41;7.80;;;6.17;;
12567;SDS011;6349;50.904;6.136;2023-04-06T12:16:43;8.33;;;6.10;;
12567;SDS011;6349;50.904;6.136;2023-04-06T12:18:43;6.63;;;5.80;;
12567;SDS011;6349;50.904;6.136;2023-04-06T12:20:44;6.90;;;5.83;;
12567;SDS011;6349;50.904;6.136;2023-04-06T12:22:45;8.73;;;6.20;;
12567;SDS011;6349;50.904;6.136;2023-04-06T12:24:46;8.37;;;6.00;;
12567;SDS011;6349;50.904;6.136;2023-04-06T12:26:47;7.97;;;6.20;;